KAC301 VABB-OKKK
Flight info
| Callsign | KAC301 |
|---|---|
| Flight time | N/A |
| Altitude | 35000 |
| Route | VABB/27 N0441F380 RAXE2A SAKUN V2 SUGID N571 MENSA/N0420F340 N571 IVOXI M557 MITIX/N0434F380 M557 TUMAK M600 KUMBO/N0344F240 A453 DEBTI DEBT3C OKKK/33R |
| Aircraft | A321/M-SDFGHIRWY/C |
Departure
| Time | 2026-05-08 08:47 |
|---|---|
| Airport | Chhatrapati Shivaji Maharaj International Airport (VABB) |
Arrival
| Time | N/A |
|---|---|
| Airport | Kuwait International Airport (OKKK) |
| Time | Latitude | Longitude | Altitude | Speed | Heading |
|---|---|---|---|---|---|
| 2026-05-08 08:27 | 19.09226 | 72.86873 | 36 ft | 0 kts | 224° |
| 2026-05-08 08:38 | 19.09230 | 72.86878 | 35 ft | 3 kts | 224° |
| 2026-05-08 08:38 | 19.09244 | 72.86891 | 36 ft | 3 kts | 224° |
| 2026-05-08 08:38 | 19.09257 | 72.86905 | 36 ft | 3 kts | 224° |
| 2026-05-08 08:38 | 19.09271 | 72.86919 | 35 ft | 3 kts | 224° |
| 2026-05-08 08:39 | 19.09284 | 72.86932 | 35 ft | 3 kts | 200° |
| 2026-05-08 08:39 | 19.09302 | 72.86938 | 35 ft | 3 kts | 175° |
| 2026-05-08 08:39 | 19.09311 | 72.86935 | 35 ft | 0 kts | 139° |
| 2026-05-08 08:42 | 19.09311 | 72.86936 | 35 ft | 1 kts | 139° |
| 2026-05-08 08:43 | 19.09279 | 72.86968 | 36 ft | 10 kts | 135° |
| 2026-05-08 08:43 | 19.09236 | 72.87020 | 36 ft | 9 kts | 112° |
| 2026-05-08 08:43 | 19.09235 | 72.87088 | 36 ft | 12 kts | 89° |
| 2026-05-08 08:43 | 19.09236 | 72.87171 | 37 ft | 11 kts | 90° |
| 2026-05-08 08:44 | 19.09228 | 72.87247 | 34 ft | 10 kts | 123° |
| 2026-05-08 08:44 | 19.09132 | 72.87264 | 37 ft | 26 kts | 179° |
| 2026-05-08 08:44 | 19.09051 | 72.87338 | 38 ft | 18 kts | 89° |
| 2026-05-08 08:44 | 19.09053 | 72.87526 | 39 ft | 28 kts | 90° |
| 2026-05-08 08:45 | 19.09054 | 72.87733 | 40 ft | 28 kts | 89° |
| 2026-05-08 08:45 | 19.09057 | 72.87941 | 41 ft | 30 kts | 92° |
| 2026-05-08 08:45 | 19.09023 | 72.88049 | 42 ft | 10 kts | 160° |
| 2026-05-08 08:45 | 19.08936 | 72.88020 | 40 ft | 21 kts | 234° |
| 2026-05-08 08:46 | 19.08887 | 72.87882 | 40 ft | 17 kts | 270° |
| 2026-05-08 08:46 | 19.08886 | 72.87871 | 40 ft | 0 kts | 269° |
| 2026-05-08 08:46 | 19.08886 | 72.87868 | 40 ft | 5 kts | 269° |
| 2026-05-08 08:46 | 19.08881 | 72.87517 | 39 ft | 93 kts | 270° |
| 2026-05-08 08:47 | 19.08870 | 72.86509 | 34 ft | 177 kts | 268° |
| 2026-05-08 08:47 | 19.08829 | 72.85122 | 613 ft | 194 kts | 269° |
| 2026-05-08 08:47 | 19.08778 | 72.83635 | 1290 ft | 214 kts | 271° |
| 2026-05-08 08:47 | 19.08714 | 72.82066 | 1740 ft | 215 kts | 270° |
| 2026-05-08 08:48 | 19.08617 | 72.80404 | 2009 ft | 246 kts | 269° |
| 2026-05-08 08:48 | 19.08255 | 72.78534 | 2272 ft | 273 kts | 248° |
| 2026-05-08 08:48 | 19.07350 | 72.76728 | 2541 ft | 280 kts | 247° |
| 2026-05-08 08:48 | 19.06692 | 72.74803 | 2790 ft | 278 kts | 261° |
| 2026-05-08 08:49 | 19.06557 | 72.72756 | 3266 ft | 285 kts | 275° |
| 2026-05-08 08:49 | 19.06736 | 72.70623 | 3797 ft | 296 kts | 279° |
| 2026-05-08 08:49 | 19.07018 | 72.68415 | 4337 ft | 308 kts | 280° |
| 2026-05-08 08:49 | 19.07339 | 72.66138 | 4871 ft | 319 kts | 280° |
| 2026-05-08 08:50 | 19.07683 | 72.63781 | 5395 ft | 329 kts | 280° |
| 2026-05-08 08:50 | 19.08043 | 72.61347 | 5935 ft | 340 kts | 281° |
| 2026-05-08 08:50 | 19.08411 | 72.58872 | 6459 ft | 349 kts | 280° |
| 2026-05-08 08:50 | 19.08793 | 72.56302 | 6974 ft | 358 kts | 280° |
| 2026-05-08 08:51 | 19.09184 | 72.53670 | 7493 ft | 366 kts | 279° |
| 2026-05-08 08:51 | 19.09583 | 72.50987 | 8025 ft | 373 kts | 279° |
| 2026-05-08 08:51 | 19.09990 | 72.48248 | 8569 ft | 379 kts | 279° |
| 2026-05-08 08:51 | 19.10400 | 72.45489 | 9112 ft | 382 kts | 279° |
| 2026-05-08 08:52 | 19.10814 | 72.42696 | 9665 ft | 386 kts | 279° |
| 2026-05-08 08:52 | 19.11232 | 72.39874 | 10159 ft | 389 kts | 278° |
| 2026-05-08 08:52 | 19.11651 | 72.37045 | 10524 ft | 391 kts | 278° |
| 2026-05-08 08:52 | 19.12072 | 72.34197 | 10848 ft | 393 kts | 278° |
| 2026-05-08 08:53 | 19.12490 | 72.31369 | 11174 ft | 395 kts | 278° |
| 2026-05-08 08:53 | 19.12915 | 72.28491 | 11512 ft | 395 kts | 278° |
| 2026-05-08 08:53 | 19.13339 | 72.25618 | 11850 ft | 396 kts | 278° |
| 2026-05-08 08:53 | 19.13763 | 72.22742 | 12192 ft | 395 kts | 277° |
| 2026-05-08 08:54 | 19.14186 | 72.19865 | 12539 ft | 396 kts | 278° |
| 2026-05-08 08:54 | 19.14611 | 72.16979 | 12889 ft | 397 kts | 277° |
| 2026-05-08 08:54 | 19.15034 | 72.14096 | 13243 ft | 397 kts | 277° |
| 2026-05-08 08:54 | 19.15454 | 72.11204 | 13605 ft | 398 kts | 276° |
| 2026-05-08 08:55 | 19.15945 | 72.08363 | 13913 ft | 400 kts | 287° |
| 2026-05-08 08:55 | 19.17181 | 72.05715 | 14239 ft | 403 kts | 300° |
| 2026-05-08 08:55 | 19.18637 | 72.03177 | 14562 ft | 405 kts | 301° |
| 2026-05-08 08:55 | 19.20084 | 72.00599 | 14887 ft | 408 kts | 300° |
| 2026-05-08 08:56 | 19.21494 | 71.97983 | 15217 ft | 410 kts | 299° |
| 2026-05-08 08:56 | 19.22876 | 71.95339 | 15551 ft | 411 kts | 299° |
| 2026-05-08 08:56 | 19.24249 | 71.92666 | 15887 ft | 414 kts | 299° |
| 2026-05-08 08:56 | 19.25617 | 71.89978 | 16226 ft | 416 kts | 299° |
| 2026-05-08 08:57 | 19.26990 | 71.87262 | 16571 ft | 419 kts | 299° |
| 2026-05-08 08:57 | 19.28363 | 71.84538 | 16925 ft | 421 kts | 299° |
| 2026-05-08 08:57 | 19.29746 | 71.81789 | 17278 ft | 423 kts | 299° |
| 2026-05-08 08:57 | 19.31115 | 71.79065 | 17627 ft | 425 kts | 299° |
| 2026-05-08 08:58 | 19.32506 | 71.76292 | 17991 ft | 428 kts | 299° |
| 2026-05-08 08:58 | 19.33906 | 71.73502 | 18316 ft | 430 kts | 299° |
| 2026-05-08 08:58 | 19.35310 | 71.70700 | 18624 ft | 432 kts | 299° |
| 2026-05-08 08:58 | 19.36718 | 71.67889 | 18935 ft | 433 kts | 299° |
| 2026-05-08 08:59 | 19.38134 | 71.65063 | 19252 ft | 434 kts | 299° |
| 2026-05-08 08:59 | 19.39551 | 71.62230 | 19567 ft | 434 kts | 299° |
| 2026-05-08 08:59 | 19.40969 | 71.59395 | 19890 ft | 435 kts | 298° |
| 2026-05-08 08:59 | 19.42370 | 71.56593 | 20210 ft | 436 kts | 298° |
| 2026-05-08 09:00 | 19.43790 | 71.53751 | 20538 ft | 437 kts | 298° |
| 2026-05-08 09:00 | 19.45218 | 71.50892 | 20871 ft | 439 kts | 298° |
| 2026-05-08 09:00 | 19.46648 | 71.48027 | 21206 ft | 440 kts | 298° |
| 2026-05-08 09:00 | 19.48082 | 71.45152 | 21546 ft | 442 kts | 298° |
| 2026-05-08 09:01 | 19.49523 | 71.42263 | 21890 ft | 443 kts | 298° |
| 2026-05-08 09:01 | 19.50961 | 71.39377 | 22239 ft | 444 kts | 298° |
| 2026-05-08 09:01 | 19.52406 | 71.36477 | 22590 ft | 445 kts | 298° |
| 2026-05-08 09:01 | 19.53850 | 71.33578 | 22947 ft | 446 kts | 298° |
| 2026-05-08 09:02 | 19.55285 | 71.30694 | 23304 ft | 447 kts | 298° |
| 2026-05-08 09:02 | 19.56740 | 71.27770 | 23626 ft | 449 kts | 298° |
| 2026-05-08 09:02 | 19.58203 | 71.24829 | 23928 ft | 451 kts | 298° |
| 2026-05-08 09:02 | 19.59673 | 71.21872 | 24235 ft | 452 kts | 298° |
| 2026-05-08 09:03 | 19.61093 | 71.18891 | 24541 ft | 454 kts | 294° |
| 2026-05-08 09:03 | 19.62242 | 71.15760 | 24854 ft | 456 kts | 290° |
| 2026-05-08 09:03 | 19.63244 | 71.12558 | 25170 ft | 458 kts | 288° |
| 2026-05-08 09:03 | 19.64179 | 71.09361 | 25485 ft | 460 kts | 288° |
| 2026-05-08 09:04 | 19.65121 | 71.06103 | 25807 ft | 462 kts | 288° |
| 2026-05-08 09:04 | 19.66080 | 71.02843 | 26133 ft | 464 kts | 288° |
| 2026-05-08 09:04 | 19.67064 | 70.99570 | 26467 ft | 466 kts | 288° |
| 2026-05-08 09:04 | 19.68069 | 70.96285 | 26801 ft | 468 kts | 289° |
| 2026-05-08 09:05 | 19.69089 | 70.92993 | 27140 ft | 470 kts | 289° |
| 2026-05-08 09:05 | 19.70117 | 70.89692 | 27482 ft | 472 kts | 289° |
| 2026-05-08 09:05 | 19.71142 | 70.86407 | 27819 ft | 475 kts | 289° |
| 2026-05-08 09:05 | 19.72183 | 70.83072 | 28171 ft | 477 kts | 289° |
| 2026-05-08 09:06 | 19.73226 | 70.79726 | 28535 ft | 478 kts | 289° |
| 2026-05-08 09:06 | 19.74268 | 70.76373 | 28934 ft | 477 kts | 289° |
| 2026-05-08 09:06 | 19.75302 | 70.73045 | 29377 ft | 473 kts | 289° |
| 2026-05-08 09:06 | 19.76329 | 70.69732 | 29731 ft | 472 kts | 289° |
| 2026-05-08 09:07 | 19.77354 | 70.66424 | 30080 ft | 471 kts | 289° |
| 2026-05-08 09:07 | 19.78376 | 70.63125 | 30400 ft | 471 kts | 289° |
| 2026-05-08 09:07 | 19.79399 | 70.59821 | 30711 ft | 470 kts | 289° |
| 2026-05-08 09:07 | 19.80419 | 70.56522 | 31037 ft | 470 kts | 289° |
| 2026-05-08 09:08 | 19.81436 | 70.53231 | 31365 ft | 469 kts | 289° |
| 2026-05-08 09:08 | 19.82453 | 70.49939 | 31691 ft | 469 kts | 289° |
| 2026-05-08 09:08 | 19.83470 | 70.46643 | 32025 ft | 469 kts | 289° |
| 2026-05-08 09:08 | 19.84485 | 70.43353 | 32370 ft | 469 kts | 289° |
| 2026-05-08 09:09 | 19.85498 | 70.40063 | 32704 ft | 468 kts | 289° |
| 2026-05-08 09:09 | 19.86501 | 70.36780 | 33053 ft | 468 kts | 288° |
| 2026-05-08 09:09 | 19.87020 | 70.33365 | 33404 ft | 470 kts | 272° |
| 2026-05-08 09:09 | 19.86615 | 70.29927 | 33761 ft | 472 kts | 257° |
| 2026-05-08 09:10 | 19.85525 | 70.26648 | 34085 ft | 474 kts | 249° |
| 2026-05-08 09:10 | 19.84644 | 70.24530 | 34293 ft | 474 kts | 247° |
| 2026-05-08 09:10 | 19.83269 | 70.21355 | 34622 ft | 473 kts | 248° |
| 2026-05-08 09:10 | 19.81522 | 70.17073 | 35059 ft | 470 kts | 249° |
| 2026-05-08 09:11 | 19.80720 | 70.14933 | 35277 ft | 469 kts | 250° |
| 2026-05-08 09:11 | 19.79590 | 70.11715 | 35608 ft | 468 kts | 252° |
| 2026-05-08 09:11 | 19.78515 | 70.08465 | 35892 ft | 464 kts | 252° |
| 2026-05-08 09:11 | 19.77481 | 70.05230 | 35879 ft | 463 kts | 253° |
| 2026-05-08 09:12 | 19.75458 | 69.98781 | 35850 ft | 462 kts | 253° |
| 2026-05-08 09:12 | 19.73421 | 69.92304 | 35846 ft | 461 kts | 253° |
| 2026-05-08 09:13 | 19.71377 | 69.85859 | 35846 ft | 461 kts | 253° |
| 2026-05-08 09:13 | 19.69323 | 69.79413 | 35850 ft | 461 kts | 252° |
| 2026-05-08 09:14 | 19.67265 | 69.72969 | 35852 ft | 461 kts | 252° |
| 2026-05-08 09:14 | 19.65205 | 69.66526 | 35845 ft | 461 kts | 252° |
| 2026-05-08 09:15 | 19.63155 | 69.60118 | 35846 ft | 461 kts | 252° |
| 2026-05-08 09:15 | 19.61088 | 69.53668 | 35845 ft | 461 kts | 252° |
| 2026-05-08 09:16 | 19.59020 | 69.47226 | 35842 ft | 461 kts | 252° |
| 2026-05-08 09:16 | 19.56951 | 69.40787 | 35842 ft | 461 kts | 252° |
| 2026-05-08 09:17 | 19.55156 | 69.34279 | 35838 ft | 458 kts | 266° |
| 2026-05-08 09:17 | 19.55284 | 69.30928 | 35839 ft | 455 kts | 282° |
| 2026-05-08 09:17 | 19.56310 | 69.27770 | 35844 ft | 454 kts | 298° |
| 2026-05-08 09:18 | 19.59937 | 69.22289 | 35851 ft | 456 kts | 307° |
| 2026-05-08 09:18 | 19.63565 | 69.16788 | 35849 ft | 457 kts | 302° |
| 2026-05-08 09:19 | 19.66693 | 69.10976 | 35847 ft | 457 kts | 298° |
| 2026-05-08 09:19 | 19.69584 | 69.04976 | 35846 ft | 457 kts | 297° |
| 2026-05-08 09:20 | 19.72424 | 68.98950 | 35846 ft | 457 kts | 297° |
| 2026-05-08 09:20 | 19.75280 | 68.92930 | 35845 ft | 457 kts | 297° |
| 2026-05-08 09:21 | 19.78155 | 68.86907 | 35842 ft | 457 kts | 297° |
| 2026-05-08 09:23 | 19.88214 | 68.65835 | 35854 ft | 457 kts | 297° |
| 2026-05-08 09:23 | 19.91082 | 68.59808 | 35846 ft | 457 kts | 297° |
| 2026-05-08 09:24 | 19.93947 | 68.53779 | 35845 ft | 457 kts | 297° |
| 2026-05-08 09:24 | 19.96812 | 68.47740 | 35851 ft | 457 kts | 297° |
| 2026-05-08 09:25 | 19.99675 | 68.41701 | 35844 ft | 458 kts | 297° |
| 2026-05-08 09:25 | 20.02526 | 68.35684 | 35844 ft | 458 kts | 297° |
| 2026-05-08 09:26 | 20.05386 | 68.29641 | 35853 ft | 458 kts | 297° |
| 2026-05-08 09:26 | 20.08249 | 68.23585 | 35849 ft | 457 kts | 297° |
| 2026-05-08 09:27 | 20.11103 | 68.17543 | 35850 ft | 457 kts | 297° |
| 2026-05-08 09:27 | 20.13958 | 68.11491 | 35851 ft | 457 kts | 297° |
| 2026-05-08 09:28 | 20.16807 | 68.05446 | 35852 ft | 457 kts | 297° |
| 2026-05-08 09:28 | 20.19652 | 67.99402 | 35850 ft | 457 kts | 297° |
| 2026-05-08 09:29 | 20.22506 | 67.93332 | 35850 ft | 457 kts | 297° |
| 2026-05-08 09:29 | 20.25331 | 67.87318 | 35846 ft | 457 kts | 297° |
| 2026-05-08 09:30 | 20.28177 | 67.81253 | 35848 ft | 457 kts | 297° |
| 2026-05-08 09:30 | 20.31020 | 67.75187 | 35846 ft | 457 kts | 297° |
| 2026-05-08 09:31 | 20.33858 | 67.69124 | 35847 ft | 457 kts | 297° |
| 2026-05-08 09:31 | 20.36693 | 67.63062 | 35847 ft | 457 kts | 297° |
| 2026-05-08 09:32 | 20.39522 | 67.57006 | 35849 ft | 457 kts | 297° |
| 2026-05-08 09:32 | 20.42335 | 67.50978 | 35844 ft | 456 kts | 297° |
| 2026-05-08 09:33 | 20.45162 | 67.44912 | 35850 ft | 456 kts | 297° |
| 2026-05-08 09:33 | 20.47990 | 67.38839 | 35847 ft | 457 kts | 297° |
| 2026-05-08 09:34 | 20.50815 | 67.32765 | 35846 ft | 456 kts | 297° |
| 2026-05-08 09:34 | 20.53636 | 67.26692 | 35852 ft | 456 kts | 297° |
| 2026-05-08 09:35 | 20.56453 | 67.20620 | 35848 ft | 456 kts | 297° |
| 2026-05-08 09:35 | 20.59249 | 67.14588 | 35852 ft | 457 kts | 297° |
| 2026-05-08 09:36 | 20.62072 | 67.08492 | 35849 ft | 457 kts | 297° |
| 2026-05-08 09:36 | 20.64886 | 67.02408 | 35848 ft | 456 kts | 297° |
| 2026-05-08 09:37 | 20.67674 | 66.96371 | 35848 ft | 456 kts | 297° |
| 2026-05-08 09:37 | 20.70481 | 66.90289 | 35845 ft | 457 kts | 297° |
| 2026-05-08 09:38 | 20.73293 | 66.84188 | 35844 ft | 456 kts | 297° |
| 2026-05-08 09:38 | 20.76095 | 66.78102 | 35843 ft | 456 kts | 297° |
| 2026-05-08 09:39 | 20.78889 | 66.72026 | 35848 ft | 456 kts | 297° |
| 2026-05-08 09:39 | 20.81671 | 66.65970 | 35842 ft | 456 kts | 296° |
| 2026-05-08 09:40 | 20.84468 | 66.59873 | 35846 ft | 456 kts | 297° |
| 2026-05-08 09:40 | 20.87262 | 66.53776 | 35839 ft | 455 kts | 296° |
| 2026-05-08 09:41 | 20.90043 | 66.47701 | 35839 ft | 455 kts | 296° |
| 2026-05-08 09:41 | 20.92809 | 66.41652 | 35842 ft | 455 kts | 296° |
| 2026-05-08 09:42 | 20.95592 | 66.35560 | 35839 ft | 456 kts | 296° |
| 2026-05-08 09:42 | 20.98373 | 66.29462 | 35838 ft | 455 kts | 296° |
| 2026-05-08 09:43 | 21.01141 | 66.23389 | 35836 ft | 454 kts | 296° |
| 2026-05-08 09:43 | 21.03910 | 66.17304 | 35839 ft | 455 kts | 296° |
| 2026-05-08 09:44 | 21.06681 | 66.11209 | 35839 ft | 455 kts | 296° |
| 2026-05-08 09:44 | 21.09445 | 66.05124 | 35833 ft | 454 kts | 296° |
| 2026-05-08 09:45 | 21.12209 | 65.99052 | 35831 ft | 453 kts | 296° |
| 2026-05-08 09:45 | 21.15027 | 65.93043 | 35831 ft | 454 kts | 297° |
| 2026-05-08 09:46 | 21.17890 | 65.86995 | 35838 ft | 456 kts | 297° |
| 2026-05-08 09:46 | 21.20753 | 65.80933 | 35837 ft | 455 kts | 297° |
| 2026-05-08 09:47 | 21.23590 | 65.74902 | 35835 ft | 452 kts | 297° |
| 2026-05-08 09:47 | 21.26406 | 65.68906 | 35830 ft | 453 kts | 297° |
| 2026-05-08 09:48 | 21.29249 | 65.62843 | 35833 ft | 456 kts | 297° |
| 2026-05-08 09:48 | 21.32090 | 65.56780 | 35832 ft | 454 kts | 297° |
| 2026-05-08 09:49 | 21.34918 | 65.50736 | 35827 ft | 451 kts | 297° |
| 2026-05-08 09:49 | 21.37737 | 65.44705 | 35831 ft | 453 kts | 297° |
| 2026-05-08 09:50 | 21.40568 | 65.38642 | 35832 ft | 455 kts | 297° |
| 2026-05-08 09:50 | 21.43384 | 65.32603 | 35823 ft | 454 kts | 296° |
| 2026-05-08 09:51 | 21.46200 | 65.26559 | 35823 ft | 453 kts | 296° |
| 2026-05-08 09:51 | 21.49009 | 65.20520 | 35826 ft | 454 kts | 296° |
| 2026-05-08 09:52 | 21.51830 | 65.14451 | 35821 ft | 455 kts | 296° |
| 2026-05-08 09:52 | 21.54658 | 65.08362 | 35819 ft | 454 kts | 296° |
| 2026-05-08 09:53 | 21.57473 | 65.02294 | 35815 ft | 452 kts | 296° |
| 2026-05-08 09:53 | 21.60276 | 64.96245 | 35820 ft | 453 kts | 296° |
| 2026-05-08 09:54 | 21.63084 | 64.90173 | 35816 ft | 454 kts | 296° |
| 2026-05-08 09:54 | 21.65905 | 64.84070 | 35819 ft | 455 kts | 296° |
| 2026-05-08 09:55 | 21.68698 | 64.78014 | 35819 ft | 454 kts | 296° |
| 2026-05-08 09:55 | 21.71487 | 64.71959 | 35810 ft | 452 kts | 296° |
| 2026-05-08 09:56 | 21.74280 | 64.65890 | 35808 ft | 453 kts | 296° |
| 2026-05-08 09:56 | 21.77082 | 64.59794 | 35818 ft | 455 kts | 296° |
| 2026-05-08 09:57 | 21.81275 | 64.50663 | 35808 ft | 452 kts | 296° |
| 2026-05-08 09:57 | 21.84055 | 64.44599 | 35808 ft | 453 kts | 296° |
| 2026-05-08 09:58 | 21.86371 | 64.39543 | 35807 ft | 454 kts | 296° |
| 2026-05-08 09:58 | 21.89623 | 64.32436 | 35800 ft | 454 kts | 296° |
| 2026-05-08 09:59 | 21.92414 | 64.26328 | 35803 ft | 453 kts | 296° |
| 2026-05-08 09:59 | 21.94721 | 64.21271 | 35800 ft | 452 kts | 296° |
| 2026-05-08 10:00 | 21.97503 | 64.15167 | 35801 ft | 453 kts | 296° |
| 2026-05-08 10:00 | 22.00291 | 64.09044 | 35800 ft | 455 kts | 295° |
| 2026-05-08 10:01 | 22.03061 | 64.02954 | 35802 ft | 454 kts | 295° |
| 2026-05-08 10:01 | 22.05822 | 63.96874 | 35795 ft | 452 kts | 295° |
| 2026-05-08 10:02 | 22.08593 | 63.90766 | 35794 ft | 454 kts | 295° |
| 2026-05-08 10:02 | 22.11355 | 63.84669 | 35799 ft | 455 kts | 295° |
| 2026-05-08 10:03 | 22.14130 | 63.78537 | 35792 ft | 454 kts | 295° |
| 2026-05-08 10:03 | 22.16891 | 63.72431 | 35782 ft | 451 kts | 295° |
| 2026-05-08 10:04 | 22.19646 | 63.66327 | 35786 ft | 453 kts | 295° |
| 2026-05-08 10:04 | 22.22394 | 63.60234 | 35786 ft | 456 kts | 295° |
| 2026-05-08 10:05 | 22.25166 | 63.54079 | 35790 ft | 455 kts | 295° |
| 2026-05-08 10:05 | 22.27919 | 63.47959 | 35785 ft | 452 kts | 295° |
| 2026-05-08 10:06 | 22.30673 | 63.41828 | 35780 ft | 454 kts | 295° |
| 2026-05-08 10:06 | 22.33437 | 63.35667 | 35785 ft | 457 kts | 295° |
| 2026-05-08 10:07 | 22.36202 | 63.29499 | 35783 ft | 455 kts | 294° |
| 2026-05-08 10:07 | 22.38932 | 63.23400 | 35774 ft | 453 kts | 295° |
| 2026-05-08 10:08 | 22.41678 | 63.17256 | 35773 ft | 454 kts | 295° |
| 2026-05-08 10:08 | 22.44411 | 63.11088 | 35769 ft | 455 kts | 294° |
| 2026-05-08 10:09 | 22.46939 | 63.04798 | 35774 ft | 456 kts | 291° |
| 2026-05-08 10:09 | 22.49368 | 62.98479 | 35773 ft | 454 kts | 292° |
| 2026-05-08 10:10 | 22.51785 | 62.92206 | 35771 ft | 455 kts | 292° |
| 2026-05-08 10:10 | 22.54246 | 62.85868 | 35773 ft | 456 kts | 292° |
| 2026-05-08 10:11 | 22.56707 | 62.79547 | 35768 ft | 456 kts | 291° |
| 2026-05-08 10:11 | 22.59165 | 62.73225 | 35768 ft | 456 kts | 291° |
| 2026-05-08 10:12 | 22.61627 | 62.66885 | 35769 ft | 458 kts | 291° |
| 2026-05-08 10:12 | 22.64091 | 62.60530 | 35767 ft | 457 kts | 291° |
| 2026-05-08 10:13 | 22.66546 | 62.54188 | 35769 ft | 455 kts | 292° |
| 2026-05-08 10:13 | 22.68979 | 62.47894 | 35767 ft | 457 kts | 291° |
| 2026-05-08 10:14 | 22.71435 | 62.41530 | 35766 ft | 457 kts | 291° |
| 2026-05-08 10:14 | 22.73888 | 62.35169 | 35767 ft | 457 kts | 291° |